createdAt,value
2022-08-28T00:02:15.318Z,111.20
2022-08-28T00:07:18.365Z,108.19
2022-08-28T00:12:20.396Z,106.42
2022-08-28T00:17:22.349Z,108.06
2022-08-28T00:22:24.384Z,109.26
2022-08-28T00:27:44.890Z,110.57
2022-08-28T00:32:47.264Z,110.80
2022-08-28T00:37:50.624Z,110.63
2022-08-28T00:42:54.568Z,112.39
2022-08-28T00:47:56.794Z,111.48
2022-08-28T00:53:00.854Z,112.43
2022-08-28T00:58:03.141Z,112.84
2022-08-28T01:03:05.874Z,113.68
2022-08-28T01:08:07.885Z,113.79
2022-08-28T01:13:10.144Z,114.23
2022-08-28T01:18:15.789Z,113.28
2022-08-28T01:23:38.941Z,112.83
2022-08-28T01:28:43.020Z,116.83
2022-08-28T01:33:46.317Z,117.82
2022-08-28T01:39:00.748Z,118.11
2022-08-28T01:44:02.744Z,116.81
2022-08-28T01:49:04.851Z,116.42
2022-08-28T01:54:06.978Z,116.36
2022-08-28T01:59:10.264Z,117.69
2022-08-28T02:04:12.370Z,117.47
2022-08-28T02:09:14.932Z,117.47
2022-08-28T02:14:16.963Z,115.54
2022-08-28T02:19:18.988Z,115.03
2022-08-28T02:24:21.445Z,113.68
2022-08-28T02:29:23.573Z,113.42
2022-08-28T02:34:25.556Z,112.61
2022-08-28T02:39:28.160Z,113.04
2022-08-28T02:44:30.112Z,112.90
2022-08-28T02:49:36.124Z,113.88
2022-08-28T02:54:40.110Z,114.06
2022-08-28T02:59:43.398Z,113.71
2022-08-28T03:04:45.373Z,112.18
2022-08-28T03:09:47.365Z,111.10
2022-08-28T03:14:49.744Z,111.10
2022-08-28T03:19:52.118Z,110.46
2022-08-28T03:24:54.124Z,110.14
2022-08-28T03:29:56.093Z,110.67
2022-08-28T03:34:58.284Z,110.38
2022-08-28T03:40:00.776Z,111.06
2022-08-28T03:45:03.033Z,110.50
2022-08-28T03:50:06.791Z,110.00
2022-08-28T03:55:12.587Z,109.77
2022-08-28T04:00:15.976Z,108.91
2022-08-28T04:05:18.176Z,110.19
2022-08-28T04:10:20.248Z,109.61
2022-08-28T04:15:22.444Z,109.22
2022-08-28T04:20:24.496Z,109.66
2022-08-28T04:25:26.944Z,108.81
2022-08-28T04:30:28.951Z,107.88
2022-08-28T04:35:30.938Z,107.07
2022-08-28T04:40:33.064Z,107.00
2022-08-28T04:45:43.006Z,106.24
2022-08-28T04:50:47.653Z,106.22
2022-08-28T04:55:54.440Z,106.85
2022-08-28T05:00:57.140Z,106.13
2022-08-28T05:05:59.368Z,105.24
2022-08-28T05:11:13.856Z,104.71
2022-08-28T05:16:43.074Z,104.40
2022-08-28T05:21:45.331Z,105.54
2022-08-28T05:26:48.072Z,107.57
2022-08-28T05:31:50.514Z,106.98
2022-08-28T05:36:52.652Z,106.85
2022-08-28T05:41:54.773Z,106.50
2022-08-28T05:46:56.956Z,107.06
2022-08-28T05:51:58.984Z,107.46
2022-08-28T05:57:00.938Z,109.49
2022-08-28T06:02:06.114Z,108.23
2022-08-28T06:07:09.283Z,109.05
2022-08-28T06:12:11.853Z,108.84
2022-08-28T06:17:14.177Z,108.30
2022-08-28T06:22:16.156Z,107.14
2022-08-28T06:27:18.156Z,108.75
2022-08-28T06:32:20.166Z,106.79
2022-08-28T06:37:22.154Z,106.50
2022-08-28T06:42:24.268Z,106.98
2022-08-28T06:47:26.249Z,106.41
2022-08-28T06:52:28.253Z,106.27
2022-08-28T06:57:31.711Z,105.74
2022-08-28T07:02:33.668Z,106.79
2022-08-28T07:07:36.169Z,107.36
2022-08-28T07:12:38.231Z,106.08
2022-08-28T07:17:40.236Z,106.58
2022-08-28T07:22:42.163Z,106.74
2022-08-28T07:27:44.272Z,106.00
2022-08-28T07:32:49.219Z,106.21
2022-08-28T07:37:51.184Z,106.19
2022-08-28T07:43:11.664Z,108.44
2022-08-28T07:48:14.363Z,110.10
2022-08-28T07:53:16.472Z,107.56
2022-08-28T07:58:19.835Z,104.87
2022-08-28T08:03:22.898Z,104.51
2022-08-28T08:08:25.569Z,107.24
2022-08-28T08:13:28.630Z,105.56
2022-08-28T08:18:30.512Z,105.25
2022-08-28T08:23:35.057Z,104.43
2022-08-28T08:28:38.636Z,104.23
2022-08-28T08:33:46.053Z,105.25
2022-08-28T08:38:48.573Z,105.66
2022-08-28T08:44:23.745Z,102.16
2022-08-28T08:49:40.802Z,104.02
2022-08-28T08:54:45.100Z,103.02
2022-08-28T08:59:47.118Z,103.39
2022-08-28T09:04:51.374Z,103.18
2022-08-28T09:09:55.526Z,101.83
2022-08-28T09:15:05.228Z,101.72
2022-08-28T09:20:10.281Z,101.69
2022-08-28T09:25:33.440Z,101.13
2022-08-28T09:30:35.304Z,99.67
2022-08-28T09:35:37.772Z,100.64
2022-08-28T09:40:58.448Z,99.09
2022-08-28T09:46:16.039Z,97.09
2022-08-28T09:51:20.991Z,98.53
2022-08-28T09:56:34.031Z,93.39
2022-08-28T10:01:43.378Z,93.67
2022-08-28T10:06:53.013Z,90.54
2022-08-28T10:11:55.189Z,91.74
2022-08-28T10:17:30.964Z,92.22
2022-08-28T10:22:32.969Z,89.38
2022-08-28T10:27:59.869Z,92.19
2022-08-28T10:33:20.401Z,89.27
2022-08-28T10:38:43.191Z,89.76
2022-08-28T10:43:48.107Z,91.72
2022-08-28T10:49:00.614Z,91.67
2022-08-28T10:54:24.548Z,89.70
2022-08-28T10:59:29.835Z,89.40
2022-08-28T11:04:32.226Z,88.98
2022-08-28T11:09:52.541Z,91.51
2022-08-28T11:14:54.582Z,88.25
2022-08-28T11:20:16.291Z,87.21
2022-08-28T11:25:34.791Z,88.59
2022-08-28T11:30:38.071Z,88.83
2022-08-28T11:35:44.342Z,85.67
2022-08-28T11:40:53.260Z,85.71
2022-08-28T11:45:56.771Z,87.66
2022-08-28T11:51:04.324Z,82.86
2022-08-28T11:56:09.442Z,83.87
2022-08-28T12:01:14.149Z,79.28
2022-08-28T12:06:16.342Z,77.31
2022-08-28T12:11:40.416Z,75.31
2022-08-28T12:17:01.421Z,77.39
2022-08-28T12:22:13.267Z,77.69
2022-08-28T12:27:15.627Z,76.56
2022-08-28T12:32:34.476Z,78.57
2022-08-28T12:37:39.564Z,75.34
2022-08-28T12:43:02.457Z,77.57
2022-08-28T12:48:21.353Z,74.95
2022-08-28T12:53:23.714Z,73.98
2022-08-28T12:58:30.399Z,72.93
2022-08-28T13:03:33.251Z,70.93
2022-08-28T13:08:36.118Z,70.16
2022-08-28T13:13:40.498Z,69.89
2022-08-28T13:18:53.709Z,70.80
2022-08-28T13:23:59.916Z,69.29
2022-08-28T13:29:05.625Z,69.98
2022-08-28T13:34:09.407Z,70.90
2022-08-28T13:39:13.169Z,69.39
2022-08-28T13:44:32.596Z,70.13
2022-08-28T13:49:35.469Z,70.06
2022-08-28T13:54:42.557Z,70.24
2022-08-28T13:59:45.871Z,70.13
2022-08-28T14:04:47.869Z,69.85
2022-08-28T14:09:55.490Z,68.81
2022-08-28T14:14:58.414Z,70.49
2022-08-28T14:20:00.407Z,71.90
2022-08-28T14:25:08.772Z,69.36
2022-08-28T14:30:11.524Z,68.07
2022-08-28T14:35:14.822Z,68.17
2022-08-28T14:40:16.963Z,66.59
2022-08-28T14:45:18.971Z,69.85
2022-08-28T14:50:20.926Z,66.35
2022-08-28T14:55:23.144Z,69.15
2022-08-28T15:00:25.145Z,69.27
2022-08-28T15:05:27.438Z,69.45
2022-08-28T15:10:29.767Z,69.26
2022-08-28T15:15:33.277Z,69.69
2022-08-28T15:20:39.605Z,69.79
2022-08-28T15:25:41.817Z,70.55
2022-08-28T15:30:43.999Z,70.05
2022-08-28T15:35:46.087Z,71.54
2022-08-28T15:41:06.847Z,70.22
2022-08-28T15:46:13.291Z,69.86
2022-08-28T15:51:19.409Z,71.33
2022-08-28T15:56:23.983Z,72.03
2022-08-28T16:01:26.065Z,73.22
2022-08-28T16:06:29.217Z,74.56
2022-08-28T16:11:32.219Z,75.60
2022-08-28T16:16:35.983Z,78.07
2022-08-28T16:21:38.954Z,81.08
2022-08-28T16:26:41.135Z,84.40
2022-08-28T16:31:43.373Z,86.51
2022-08-28T16:36:48.380Z,87.82
2022-08-28T16:41:50.830Z,88.51
2022-08-28T16:46:54.191Z,88.73
2022-08-28T16:52:05.051Z,89.86
2022-08-28T16:57:11.442Z,89.87
2022-08-28T17:02:15.667Z,90.17
2022-08-28T17:07:26.827Z,90.69
2022-08-28T17:12:31.980Z,90.48
2022-08-28T17:17:35.145Z,92.15
2022-08-28T17:22:37.179Z,93.28
2022-08-28T17:27:42.318Z,109.84
2022-08-28T17:32:44.597Z,115.97
2022-08-28T17:37:46.708Z,-5.98
2022-08-28T17:42:48.865Z,-3.23
2022-08-28T17:47:52.734Z,-1.01
2022-08-28T17:52:55.695Z,-3.08
2022-08-28T17:57:57.888Z,-0.86
2022-08-28T18:03:00.018Z,-0.52
2022-08-28T18:08:01.953Z,0.19
2022-08-28T18:13:05.039Z,-0.31
2022-08-28T18:18:07.038Z,1.12
2022-08-28T18:23:09.166Z,0.97
2022-08-28T18:28:37.870Z,2.03
2022-08-28T18:33:40.812Z,1.78
2022-08-28T18:38:43.916Z,1.74
2022-08-28T18:43:46.203Z,2.67
2022-08-28T18:48:48.526Z,2.78
2022-08-28T18:53:52.076Z,3.24
2022-08-28T18:58:55.064Z,3.31
2022-08-28T19:03:57.093Z,3.31
2022-08-28T19:08:59.221Z,2.00
2022-08-28T19:14:03.775Z,2.38
2022-08-28T19:19:06.327Z,1.03
2022-08-28T19:24:11.793Z,1.86
2022-08-28T19:29:14.315Z,1.26
2022-08-28T19:34:17.065Z,1.18
2022-08-28T19:39:20.660Z,0.87
2022-08-28T19:44:22.808Z,-0.48
2022-08-28T19:49:25.055Z,0.17
2022-08-28T19:54:27.228Z,1.19
2022-08-28T19:59:31.448Z,2.69
2022-08-28T20:04:33.834Z,3.92
2022-08-28T20:09:35.825Z,4.25
2022-08-28T20:14:41.443Z,4.83
2022-08-28T20:19:43.439Z,5.08
2022-08-28T20:24:45.567Z,5.09
2022-08-28T20:29:47.587Z,6.34
2022-08-28T20:34:49.810Z,5.98
2022-08-28T20:39:56.835Z,6.27
2022-08-28T20:44:59.428Z,5.28
2022-08-28T20:50:01.590Z,2.51
2022-08-28T20:55:05.404Z,6.53
2022-08-28T21:00:09.782Z,3.48
2022-08-28T21:05:12.220Z,6.07
2022-08-28T21:10:14.270Z,7.98
2022-08-28T21:15:16.244Z,9.59
2022-08-28T21:20:20.069Z,8.35
2022-08-28T21:25:24.645Z,9.98
2022-08-28T21:30:29.545Z,8.88
2022-08-28T21:35:32.169Z,9.40
2022-08-28T21:40:35.828Z,9.08
2022-08-28T21:45:37.918Z,10.16
2022-08-28T21:50:42.904Z,9.44
2022-08-28T21:55:49.917Z,9.02
2022-08-28T22:00:55.359Z,9.21
2022-08-28T22:05:57.832Z,8.11
2022-08-28T22:10:59.817Z,8.01
2022-08-28T22:16:01.912Z,8.34
2022-08-28T22:21:23.725Z,8.72
2022-08-28T22:26:26.400Z,7.80
2022-08-28T22:31:29.524Z,7.87
2022-08-28T22:36:31.751Z,6.97
2022-08-28T22:41:34.100Z,6.05
2022-08-28T22:46:36.209Z,7.96
2022-08-28T22:51:38.241Z,7.56
2022-08-28T22:56:40.292Z,7.28
2022-08-28T23:01:42.941Z,6.58
2022-08-28T23:06:59.106Z,5.91
2022-08-28T23:12:01.616Z,6.57
2022-08-28T23:17:03.786Z,7.81
2022-08-28T23:22:06.556Z,9.20
2022-08-28T23:27:32.545Z,11.17
2022-08-28T23:32:30.708Z,11.67
2022-08-28T23:37:36.927Z,11.38
2022-08-28T23:42:39.897Z,12.29
2022-08-28T23:47:42.203Z,11.86
2022-08-28T23:52:44.925Z,11.92
2022-08-28T23:57:47.401Z,11.45
